WetterOnline ( http://www.wetteronline.de )

Wetter aktuell Gießen

Aktuelles Wetter: Kleiner Feldberg (802m)

6-stündlich | Neueste Meldungen
Ortszeit Temperatur Wetter
Di, 17.07. 8:00 19.6° C leicht bewölkt
Di, 17.07. 2:00 17.3° C wolkig
Mo, 16.07. 20:00 19.5° C bewölkt
Mo, 16.07. 14:00 22.7° C leicht bewölkt
Mo, 16.07. 8:00 14.9° C leicht bewölkt
Mo, 16.07. 2:00 16.3° C bedeckt
So, 15.07. 20:00 17.0° C leichter Regen
So, 15.07. 14:00 23.1° C wolkig
Ortszeit Temperatur Wetter
Di, 17.07. 13:30 22.7° C wolkig
Di, 17.07. 13:20 22.7° C wolkig
Di, 17.07. 13:10 23.7° C wolkig
Di, 17.07. 13:00 23.8° C leicht bewölkt
Di, 17.07. 12:50 23.8° C wolkig
Di, 17.07. 12:40 23.6° C wolkig
Di, 17.07. 12:30 23.7° C wolkig
Di, 17.07. 12:00 23.0° C leicht bewölkt
Di, 17.07. 11:30 22.5° C leicht bewölkt
Di, 17.07. 11:00 22.4° C wolkenlos
Di, 17.07. 10:30 22.0° C wolkenlos
Ortszeit Relative Feuchte Sichtweite
Di, 17.07. 8:00 51% 70 km
Di, 17.07. 2:00 60% 70 km
Mo, 16.07. 20:00 44% 70 km
Mo, 16.07. 14:00 47% 24 km
Mo, 16.07. 8:00 75% 55 km
Mo, 16.07. 2:00 60% 70 km
So, 15.07. 20:00 65% 40 km
So, 15.07. 14:00 43% 40 km
Ortszeit Relative Feuchte Sichtweite
Di, 17.07. 13:30 38% 50 km
Di, 17.07. 13:20 38% -
Di, 17.07. 13:10 37% -
Di, 17.07. 13:00 36% 35 km
Di, 17.07. 12:50 36% -
Di, 17.07. 12:40 35% -
Di, 17.07. 12:30 37% 45 km
Di, 17.07. 12:00 38% 35 km
Di, 17.07. 11:30 37% 35 km
Di, 17.07. 11:00 41% 40 km
Di, 17.07. 10:30 50% 30 km
Ortszeit Niederschlagsmenge Niederschlagsart
Di, 17.07. 8:00 0.1 l/m2 in 12 Std. -
Di, 17.07. 2:00 0.1 l/m2 in 6 Std. Regen
Mo, 16.07. 20:00 0.1 l/m2 in 12 Std. Regen
Mo, 16.07. 14:00 0.0 l/m2 in 6 Std. -
Mo, 16.07. 8:00 0.2 l/m2 in 12 Std. -
Mo, 16.07. 2:00 0.2 l/m2 in 6 Std. Regen
So, 15.07. 20:00 0.1 l/m2 in 12 Std. Regen, Niederschlag
So, 15.07. 14:00 0.0 l/m2 in 6 Std. -
Ortszeit Niederschlagsmenge Niederschlagsart
Di, 17.07. 13:30 0.0 l/m2 in 1 Std. -
Di, 17.07. 13:20 keine Meldung -
Di, 17.07. 13:10 keine Meldung -
Di, 17.07. 13:00 0.0 l/m2 in 1 Std. -
Di, 17.07. 12:50 keine Meldung -
Di, 17.07. 12:40 keine Meldung -
Di, 17.07. 12:30 0.0 l/m2 in 1 Std. -
Di, 17.07. 12:00 0.0 l/m2 in 1 Std. -
Di, 17.07. 11:30 0.0 l/m2 in 1 Std. -
Di, 17.07. 11:00 0.0 l/m2 in 1 Std. -
Di, 17.07. 10:30 0.0 l/m2 in 1 Std. -
Ortszeit Stärke Spitze Richtung
km/h Bft. km/h Grad Sektor
Di, 17.07. 8:00 7 2 18 310° NW
Di, 17.07. 2:00 11 2 18 200° S
Mo, 16.07. 20:00 9 2 26 10° N
Mo, 16.07. 14:00 7 2 22 180° S
Mo, 16.07. 8:00 9 2 19 210° SW
Mo, 16.07. 2:00 9 2 26 320° NW
So, 15.07. 20:00 14 3 29 200° S
So, 15.07. 14:00 7 2 17 320° NW
Ortszeit Stärke Spitze Richtung
km/h Bft. km/h Grad Sektor
Di, 17.07. 13:30 11 2 18 310° NW
Di, 17.07. 13:20 11 2 - 310° NW
Di, 17.07. 13:10 9 2 - 290° W
Di, 17.07. 13:00 11 2 22 290° W
Di, 17.07. 12:50 11 2 - 290° W
Di, 17.07. 12:40 11 2 - 300° NW
Di, 17.07. 12:30 11 2 22 320° NW
Di, 17.07. 12:00 9 2 20 290° W
Di, 17.07. 11:30 11 2 18 290° W
Di, 17.07. 11:00 7 2 14 300° NW
Di, 17.07. 10:30 9 2 15 280° W
Ortszeit Untergrenze Bedeckung Gattung
total tief tief mittel hoch
Di, 17.07. 8:00 9000 m 3/8 0/8 - - -
Di, 17.07. 2:00 9000 m 8/8 0/8 - - -
Mo, 16.07. 20:00 3000 m 7/8 7/8 - - -
Mo, 16.07. 14:00 1230 m 4/8 2/8 - - -
Mo, 16.07. 8:00 1500 m 2/8 5/8 - - -
Mo, 16.07. 2:00 3300 m 8/8 8/8 - - -
So, 15.07. 20:00 1800 m 8/8 8/8 - - -
So, 15.07. 14:00 1500 m 6/8 6/8 - - -
Ortszeit Bedeckungsgrad in Achtel und Wolkenuntergrenze
Di, 17.07. 13:30 1(1800m) 7(9000m)
Di, 17.07. 13:20 1(1800m) 2(3600m) 7(9000m)
Di, 17.07. 13:10 1(1500m) 2(3600m) 8(9000m)
Di, 17.07. 13:00 8(9000m) 8(9000m)
Di, 17.07. 12:50 8(9000m)
Di, 17.07. 12:40 8(9000m)
Di, 17.07. 12:30 2(7200m) 8(8700m)
Di, 17.07. 12:00 1(7200m) 8(9000m) 8(9000m)
Di, 17.07. 11:30 1(7500m) 3(9000m)
Di, 17.07. 11:00 keine Wolken
Di, 17.07. 10:30 keine Wolken
Ortszeit Stationsdruck (hPa) Tendenz (hPa in 3 Std.)
Di, 17.07. 8:00 921 + 0,7
Di, 17.07. 2:00 921 + 0,3
Mo, 16.07. 20:00 920 - 0,2
Mo, 16.07. 14:00 921 - 0,6
Mo, 16.07. 8:00 921 - 0,3
Mo, 16.07. 2:00 922 - 0,3
So, 15.07. 20:00 922 + 0,1
So, 15.07. 14:00 923 - 0,7
Ortszeit Stationsdruck (hPa) Tendenz (hPa in 3 Std.)
Di, 17.07. 13:30 922 + 0,5
Di, 17.07. 13:20 922 keine Meldung
Di, 17.07. 13:10 922 keine Meldung
Di, 17.07. 13:00 922 + 0,8
Di, 17.07. 12:50 922 keine Meldung
Di, 17.07. 12:40 922 keine Meldung
Di, 17.07. 12:30 922 + 0,8
Di, 17.07. 12:00 922 + 0,7
Di, 17.07. 11:30 922 + 0,7
Di, 17.07. 11:00 922 + 0,8
Di, 17.07. 10:30 922 + 0,7
Ortszeit Schneehöhe (cm)
Di, 17.07. 8:00 -
Di, 17.07. 2:00 -
Mo, 16.07. 20:00 -
Mo, 16.07. 14:00 -
Mo, 16.07. 8:00 -
Mo, 16.07. 2:00 -
So, 15.07. 20:00 -
So, 15.07. 14:00 -
Ortszeit Schneehöhe (cm)
Di, 17.07. 13:30 -
Di, 17.07. 13:20 -
Di, 17.07. 13:10 -
Di, 17.07. 13:00 -
Di, 17.07. 12:50 -
Di, 17.07. 12:40 -
Di, 17.07. 12:30 -
Di, 17.07. 12:00 -
Di, 17.07. 11:30 -
Di, 17.07. 11:00 -
Di, 17.07. 10:30 -
Link zu dieser Seite / Seite empfehlen

Das Wetter in ...